Terminal Aerodrome Forecast
Issued by NWS

Home | Current Version | Previous Version | Text Only | Print | Product List | Glossary On
Versions: 1 2 3 4 5 6 7 8 9 10 11 12 13 14 15 16 17 18 19 20 21 22 23 24 25 26 27 28 29
000
FTUS44 KHGX 271937 AAA
TAFLBX
TAF AMD
KLBX 271937Z 2720/2818 09013KT P6SM VCTS SCT035CB BKN250
      TEMPO 2720/2724 VRB12G25KT 4SM TSRA BKN030CB
     FM280100 10004KT P6SM BKN250=

USA.gov is the U.S. government's official web portal to all federal, state and local government web resources and services.